Andover, Iowa
Current Conditions -  °F | °C
As of 7:55 PM on Friday 24 Oct 2014 (Local Time) from KSFY Reporting Station
Overcast Overcast  
Wind Chill: 62°   Ceiling: 3200
Heat Index: 62°   Visibility: 10mi
Dew Point: 50°   Wind: 5mph
Humidity: 65%   Direction: 190°S
Pressure: 29.93"   Gusts: NA
Location:  41.98°N, 90.25°W
Report Text: KSFY 250055Z AUTO 19004KT 10SM OVC032 17/10 A2993 RMK AO2 T01670101
Loading
Personal Weather Stations






























Interactive Weather Map
Tropical Storm Tracking
New forecast layout! Learn more

10-Day Weather Forecast

Advertisements
Track Severe Weather on mobile